sensor_id;sensor_type;location;lat;lon;timestamp;P1;durP1;ratioP1;P2;durP2;ratioP2
74851;SDS011;63400;50.650;6.832;2024-01-10T00:01:30;7.93;;;2.63;;
74851;SDS011;63400;50.650;6.832;2024-01-10T00:03:56;4.80;;;1.67;;
74851;SDS011;63400;50.650;6.832;2024-01-10T00:06:21;6.45;;;2.13;;
74851;SDS011;63400;50.650;6.832;2024-01-10T00:08:48;5.78;;;1.05;;
74851;SDS011;63400;50.650;6.832;2024-01-10T00:11:13;3.60;;;1.35;;
74851;SDS011;63400;50.650;6.832;2024-01-10T00:13:39;6.25;;;1.52;;
74851;SDS011;63400;50.650;6.832;2024-01-10T00:16:04;4.78;;;1.30;;
74851;SDS011;63400;50.650;6.832;2024-01-10T00:18:30;5.80;;;1.88;;
74851;SDS011;63400;50.650;6.832;2024-01-10T00:20:56;3.83;;;1.58;;
74851;SDS011;63400;50.650;6.832;2024-01-10T00:23:21;8.30;;;3.22;;
74851;SDS011;63400;50.650;6.832;2024-01-10T00:25:47;6.35;;;1.30;;
74851;SDS011;63400;50.650;6.832;2024-01-10T00:28:13;3.15;;;1.90;;
74851;SDS011;63400;50.650;6.832;2024-01-10T00:30:39;3.80;;;1.20;;
74851;SDS011;63400;50.650;6.832;2024-01-10T00:33:04;4.30;;;1.23;;
74851;SDS011;63400;50.650;6.832;2024-01-10T00:35:30;3.63;;;1.33;;
74851;SDS011;63400;50.650;6.832;2024-01-10T00:37:56;10.18;;;1.95;;
74851;SDS011;63400;50.650;6.832;2024-01-10T00:40:22;2.75;;;0.85;;
74851;SDS011;63400;50.650;6.832;2024-01-10T00:42:47;5.22;;;2.15;;
74851;SDS011;63400;50.650;6.832;2024-01-10T00:45:13;4.20;;;1.63;;
74851;SDS011;63400;50.650;6.832;2024-01-10T00:47:38;3.38;;;1.08;;
74851;SDS011;63400;50.650;6.832;2024-01-10T00:50:04;3.20;;;1.08;;
74851;SDS011;63400;50.650;6.832;2024-01-10T00:52:30;5.97;;;1.67;;
74851;SDS011;63400;50.650;6.832;2024-01-10T00:54:56;2.75;;;1.50;;
74851;SDS011;63400;50.650;6.832;2024-01-10T00:57:21;5.43;;;1.77;;
74851;SDS011;63400;50.650;6.832;2024-01-10T00:59:46;3.65;;;1.27;;
74851;SDS011;63400;50.650;6.832;2024-01-10T01:02:12;5.55;;;1.58;;
74851;SDS011;63400;50.650;6.832;2024-01-10T01:04:37;3.13;;;1.83;;
74851;SDS011;63400;50.650;6.832;2024-01-10T01:07:03;5.13;;;1.55;;
74851;SDS011;63400;50.650;6.832;2024-01-10T01:09:28;3.50;;;1.00;;
74851;SDS011;63400;50.650;6.832;2024-01-10T01:11:53;2.50;;;0.50;;
74851;SDS011;63400;50.650;6.832;2024-01-10T01:14:19;3.42;;;1.23;;
74851;SDS011;63400;50.650;6.832;2024-01-10T01:16:44;7.18;;;1.88;;
74851;SDS011;63400;50.650;6.832;2024-01-10T01:19:10;5.93;;;1.27;;
74851;SDS011;63400;50.650;6.832;2024-01-10T01:21:35;7.65;;;1.92;;
74851;SDS011;63400;50.650;6.832;2024-01-10T01:24:00;2.72;;;0.93;;
74851;SDS011;63400;50.650;6.832;2024-01-10T01:26:26;3.75;;;1.83;;
74851;SDS011;63400;50.650;6.832;2024-01-10T01:28:51;2.38;;;1.23;;
74851;SDS011;63400;50.650;6.832;2024-01-10T01:31:16;8.60;;;1.83;;
74851;SDS011;63400;50.650;6.832;2024-01-10T01:33:42;3.63;;;0.95;;
74851;SDS011;63400;50.650;6.832;2024-01-10T01:36:08;4.57;;;1.58;;
74851;SDS011;63400;50.650;6.832;2024-01-10T01:38:33;3.08;;;0.95;;
74851;SDS011;63400;50.650;6.832;2024-01-10T01:40:59;4.18;;;1.40;;
74851;SDS011;63400;50.650;6.832;2024-01-10T01:43:25;3.17;;;0.90;;
74851;SDS011;63400;50.650;6.832;2024-01-10T01:45:51;5.40;;;1.30;;
74851;SDS011;63400;50.650;6.832;2024-01-10T01:48:19;2.65;;;0.82;;
74851;SDS011;63400;50.650;6.832;2024-01-10T01:50:46;4.57;;;1.58;;
74851;SDS011;63400;50.650;6.832;2024-01-10T01:53:13;2.97;;;1.13;;
74851;SDS011;63400;50.650;6.832;2024-01-10T01:55:39;8.63;;;2.13;;
74851;SDS011;63400;50.650;6.832;2024-01-10T01:58:06;4.63;;;0.50;;
74851;SDS011;63400;50.650;6.832;2024-01-10T02:00:32;2.95;;;1.00;;
74851;SDS011;63400;50.650;6.832;2024-01-10T02:02:58;3.45;;;0.90;;
74851;SDS011;63400;50.650;6.832;2024-01-10T02:05:25;3.95;;;1.00;;
74851;SDS011;63400;50.650;6.832;2024-01-10T02:07:51;14.93;;;1.83;;
74851;SDS011;63400;50.650;6.832;2024-01-10T02:10:16;5.78;;;1.85;;
74851;SDS011;63400;50.650;6.832;2024-01-10T02:12:42;4.28;;;1.60;;
74851;SDS011;63400;50.650;6.832;2024-01-10T02:15:08;4.90;;;2.03;;
74851;SDS011;63400;50.650;6.832;2024-01-10T02:17:34;2.80;;;0.88;;
74851;SDS011;63400;50.650;6.832;2024-01-10T02:22:54;5.38;;;1.58;;
74851;SDS011;63400;50.650;6.832;2024-01-10T02:25:19;8.65;;;1.77;;
74851;SDS011;63400;50.650;6.832;2024-01-10T02:27:45;4.63;;;1.98;;
74851;SDS011;63400;50.650;6.832;2024-01-10T02:30:10;2.95;;;1.45;;
74851;SDS011;63400;50.650;6.832;2024-01-10T02:32:36;5.45;;;1.65;;
74851;SDS011;63400;50.650;6.832;2024-01-10T02:35:02;5.43;;;1.83;;
74851;SDS011;63400;50.650;6.832;2024-01-10T02:37:28;3.80;;;1.10;;
74851;SDS011;63400;50.650;6.832;2024-01-10T02:39:53;4.88;;;1.52;;
74851;SDS011;63400;50.650;6.832;2024-01-10T02:42:19;6.07;;;2.08;;
74851;SDS011;63400;50.650;6.832;2024-01-10T02:44:44;6.25;;;1.95;;
74851;SDS011;63400;50.650;6.832;2024-01-10T02:47:12;3.97;;;1.08;;
74851;SDS011;63400;50.650;6.832;2024-01-10T02:49:38;3.70;;;1.35;;
74851;SDS011;63400;50.650;6.832;2024-01-10T02:52:03;5.32;;;0.88;;
74851;SDS011;63400;50.650;6.832;2024-01-10T02:54:29;2.75;;;0.88;;
74851;SDS011;63400;50.650;6.832;2024-01-10T02:56:54;3.42;;;1.70;;
74851;SDS011;63400;50.650;6.832;2024-01-10T02:59:20;3.78;;;1.20;;
74851;SDS011;63400;50.650;6.832;2024-01-10T03:01:45;4.57;;;1.23;;
74851;SDS011;63400;50.650;6.832;2024-01-10T03:04:11;7.88;;;1.73;;
74851;SDS011;63400;50.650;6.832;2024-01-10T03:06:36;4.30;;;0.93;;
74851;SDS011;63400;50.650;6.832;2024-01-10T03:09:02;5.10;;;2.05;;
74851;SDS011;63400;50.650;6.832;2024-01-10T03:11:28;4.18;;;2.35;;
74851;SDS011;63400;50.650;6.832;2024-01-10T03:14:03;2.35;;;0.90;;
74851;SDS011;63400;50.650;6.832;2024-01-10T03:16:32;3.50;;;1.52;;
74851;SDS011;63400;50.650;6.832;2024-01-10T03:18:58;4.20;;;2.08;;
74851;SDS011;63400;50.650;6.832;2024-01-10T03:21:23;4.10;;;1.98;;
74851;SDS011;63400;50.650;6.832;2024-01-10T03:23:58;3.90;;;1.42;;
74851;SDS011;63400;50.650;6.832;2024-01-10T03:26:24;4.22;;;1.02;;
74851;SDS011;63400;50.650;6.832;2024-01-10T03:28:50;6.95;;;2.53;;
74851;SDS011;63400;50.650;6.832;2024-01-10T03:31:15;1.75;;;1.00;;
74851;SDS011;63400;50.650;6.832;2024-01-10T03:33:41;4.88;;;1.25;;
74851;SDS011;63400;50.650;6.832;2024-01-10T03:36:09;2.53;;;1.02;;
74851;SDS011;63400;50.650;6.832;2024-01-10T03:38:36;2.13;;;0.77;;
74851;SDS011;63400;50.650;6.832;2024-01-10T03:41:02;7.05;;;2.05;;
74851;SDS011;63400;50.650;6.832;2024-01-10T03:43:27;3.40;;;0.75;;
74851;SDS011;63400;50.650;6.832;2024-01-10T03:45:52;4.05;;;0.98;;
74851;SDS011;63400;50.650;6.832;2024-01-10T03:48:18;5.22;;;1.63;;
74851;SDS011;63400;50.650;6.832;2024-01-10T03:50:44;2.92;;;1.85;;
74851;SDS011;63400;50.650;6.832;2024-01-10T03:53:09;4.63;;;1.55;;
74851;SDS011;63400;50.650;6.832;2024-01-10T03:55:35;9.23;;;2.47;;
74851;SDS011;63400;50.650;6.832;2024-01-10T03:58:00;3.38;;;2.00;;
74851;SDS011;63400;50.650;6.832;2024-01-10T04:00:26;2.85;;;1.13;;
74851;SDS011;63400;50.650;6.832;2024-01-10T04:02:51;2.33;;;1.00;;
74851;SDS011;63400;50.650;6.832;2024-01-10T04:05:17;3.78;;;1.42;;
74851;SDS011;63400;50.650;6.832;2024-01-10T04:07:44;4.28;;;1.45;;
74851;SDS011;63400;50.650;6.832;2024-01-10T04:10:10;3.25;;;1.20;;
74851;SDS011;63400;50.650;6.832;2024-01-10T04:12:38;5.15;;;1.40;;
74851;SDS011;63400;50.650;6.832;2024-01-10T04:15:13;3.72;;;1.90;;
74851;SDS011;63400;50.650;6.832;2024-01-10T04:17:39;5.93;;;1.38;;
74851;SDS011;63400;50.650;6.832;2024-01-10T04:20:04;4.20;;;1.38;;
74851;SDS011;63400;50.650;6.832;2024-01-10T04:22:30;5.15;;;1.02;;
74851;SDS011;63400;50.650;6.832;2024-01-10T04:24:59;5.55;;;1.85;;
74851;SDS011;63400;50.650;6.832;2024-01-10T04:27:25;3.15;;;1.85;;
74851;SDS011;63400;50.650;6.832;2024-01-10T04:29:51;3.33;;;1.60;;
74851;SDS011;63400;50.650;6.832;2024-01-10T04:32:17;3.17;;;1.27;;
74851;SDS011;63400;50.650;6.832;2024-01-10T04:34:42;6.80;;;2.78;;
74851;SDS011;63400;50.650;6.832;2024-01-10T04:37:08;5.35;;;1.95;;
74851;SDS011;63400;50.650;6.832;2024-01-10T04:39:34;3.40;;;1.27;;
74851;SDS011;63400;50.650;6.832;2024-01-10T04:41:59;3.40;;;1.38;;
74851;SDS011;63400;50.650;6.832;2024-01-10T04:44:25;4.10;;;1.60;;
74851;SDS011;63400;50.650;6.832;2024-01-10T04:46:50;3.75;;;1.05;;
74851;SDS011;63400;50.650;6.832;2024-01-10T04:49:16;4.15;;;0.85;;
74851;SDS011;63400;50.650;6.832;2024-01-10T04:51:41;4.95;;;1.60;;
74851;SDS011;63400;50.650;6.832;2024-01-10T04:54:07;9.38;;;1.27;;
74851;SDS011;63400;50.650;6.832;2024-01-10T04:56:33;4.15;;;1.80;;
74851;SDS011;63400;50.650;6.832;2024-01-10T04:59:01;3.33;;;1.42;;
74851;SDS011;63400;50.650;6.832;2024-01-10T05:01:26;4.05;;;1.58;;
74851;SDS011;63400;50.650;6.832;2024-01-10T05:03:52;5.90;;;1.38;;
74851;SDS011;63400;50.650;6.832;2024-01-10T05:06:17;4.80;;;1.70;;
74851;SDS011;63400;50.650;6.832;2024-01-10T05:08:43;5.13;;;1.02;;
74851;SDS011;63400;50.650;6.832;2024-01-10T05:11:08;4.28;;;1.45;;
74851;SDS011;63400;50.650;6.832;2024-01-10T05:13:33;6.38;;;2.92;;
74851;SDS011;63400;50.650;6.832;2024-01-10T05:15:59;9.13;;;2.90;;
74851;SDS011;63400;50.650;6.832;2024-01-10T05:18:25;6.75;;;2.22;;
74851;SDS011;63400;50.650;6.832;2024-01-10T05:20:50;5.97;;;2.60;;
74851;SDS011;63400;50.650;6.832;2024-01-10T05:23:15;3.90;;;1.52;;
74851;SDS011;63400;50.650;6.832;2024-01-10T05:25:41;6.32;;;2.03;;
74851;SDS011;63400;50.650;6.832;2024-01-10T05:28:06;3.25;;;1.20;;
74851;SDS011;63400;50.650;6.832;2024-01-10T05:30:32;4.93;;;2.55;;
74851;SDS011;63400;50.650;6.832;2024-01-10T05:32:57;5.47;;;2.10;;
74851;SDS011;63400;50.650;6.832;2024-01-10T05:37:51;6.07;;;1.83;;
74851;SDS011;63400;50.650;6.832;2024-01-10T05:40:17;4.53;;;1.55;;
74851;SDS011;63400;50.650;6.832;2024-01-10T05:42:43;9.77;;;1.52;;
74851;SDS011;63400;50.650;6.832;2024-01-10T05:45:09;4.28;;;1.38;;
74851;SDS011;63400;50.650;6.832;2024-01-10T05:47:34;8.68;;;2.30;;
74851;SDS011;63400;50.650;6.832;2024-01-10T05:50:00;5.28;;;2.10;;
74851;SDS011;63400;50.650;6.832;2024-01-10T05:52:26;4.75;;;2.80;;
74851;SDS011;63400;50.650;6.832;2024-01-10T05:54:52;5.20;;;1.63;;
74851;SDS011;63400;50.650;6.832;2024-01-10T05:57:18;6.57;;;2.17;;
74851;SDS011;63400;50.650;6.832;2024-01-10T05:59:44;7.57;;;2.45;;
74851;SDS011;63400;50.650;6.832;2024-01-10T06:02:09;9.35;;;3.20;;
74851;SDS011;63400;50.650;6.832;2024-01-10T06:04:36;5.18;;;1.75;;
74851;SDS011;63400;50.650;6.832;2024-01-10T06:07:01;8.93;;;2.35;;
74851;SDS011;63400;50.650;6.832;2024-01-10T06:09:26;9.90;;;2.92;;
74851;SDS011;63400;50.650;6.832;2024-01-10T06:11:52;8.95;;;2.80;;
74851;SDS011;63400;50.650;6.832;2024-01-10T06:14:17;3.95;;;1.15;;
74851;SDS011;63400;50.650;6.832;2024-01-10T06:16:43;4.82;;;1.60;;
74851;SDS011;63400;50.650;6.832;2024-01-10T06:19:10;5.75;;;2.53;;
74851;SDS011;63400;50.650;6.832;2024-01-10T06:21:36;3.75;;;2.45;;
74851;SDS011;63400;50.650;6.832;2024-01-10T06:24:02;4.68;;;1.90;;
74851;SDS011;63400;50.650;6.832;2024-01-10T06:26:28;2.15;;;1.13;;
74851;SDS011;63400;50.650;6.832;2024-01-10T06:28:53;12.00;;;2.53;;
74851;SDS011;63400;50.650;6.832;2024-01-10T06:31:18;5.18;;;2.28;;
74851;SDS011;63400;50.650;6.832;2024-01-10T06:33:45;8.73;;;3.40;;
74851;SDS011;63400;50.650;6.832;2024-01-10T06:36:10;10.35;;;4.40;;
74851;SDS011;63400;50.650;6.832;2024-01-10T06:38:35;12.18;;;2.10;;
74851;SDS011;63400;50.650;6.832;2024-01-10T06:41:01;4.22;;;1.73;;
74851;SDS011;63400;50.650;6.832;2024-01-10T06:43:33;6.20;;;1.83;;
74851;SDS011;63400;50.650;6.832;2024-01-10T06:45:59;5.57;;;2.70;;
74851;SDS011;63400;50.650;6.832;2024-01-10T06:48:25;4.75;;;2.75;;
74851;SDS011;63400;50.650;6.832;2024-01-10T06:50:50;14.25;;;2.60;;
74851;SDS011;63400;50.650;6.832;2024-01-10T06:53:15;3.35;;;1.35;;
74851;SDS011;63400;50.650;6.832;2024-01-10T06:55:41;7.68;;;2.20;;
74851;SDS011;63400;50.650;6.832;2024-01-10T06:58:06;5.88;;;2.55;;
74851;SDS011;63400;50.650;6.832;2024-01-10T07:00:32;4.75;;;1.23;;
74851;SDS011;63400;50.650;6.832;2024-01-10T07:03:00;3.60;;;2.58;;
74851;SDS011;63400;50.650;6.832;2024-01-10T07:05:27;8.10;;;2.72;;
74851;SDS011;63400;50.650;6.832;2024-01-10T07:07:53;6.10;;;2.67;;
74851;SDS011;63400;50.650;6.832;2024-01-10T07:10:18;4.13;;;2.03;;
74851;SDS011;63400;50.650;6.832;2024-01-10T07:12:44;10.35;;;3.42;;
74851;SDS011;63400;50.650;6.832;2024-01-10T07:15:09;5.05;;;1.63;;
74851;SDS011;63400;50.650;6.832;2024-01-10T07:17:36;4.15;;;1.23;;
74851;SDS011;63400;50.650;6.832;2024-01-10T07:20:02;4.30;;;2.13;;
74851;SDS011;63400;50.650;6.832;2024-01-10T07:22:28;5.05;;;2.08;;
74851;SDS011;63400;50.650;6.832;2024-01-10T07:24:53;7.53;;;2.53;;
74851;SDS011;63400;50.650;6.832;2024-01-10T07:27:19;4.70;;;2.13;;
74851;SDS011;63400;50.650;6.832;2024-01-10T07:29:44;8.02;;;3.88;;
74851;SDS011;63400;50.650;6.832;2024-01-10T07:32:09;12.27;;;2.45;;
74851;SDS011;63400;50.650;6.832;2024-01-10T07:34:36;9.15;;;4.13;;
74851;SDS011;63400;50.650;6.832;2024-01-10T07:37:02;9.35;;;4.28;;
74851;SDS011;63400;50.650;6.832;2024-01-10T07:39:28;7.00;;;2.65;;
74851;SDS011;63400;50.650;6.832;2024-01-10T07:41:54;8.30;;;3.92;;
74851;SDS011;63400;50.650;6.832;2024-01-10T07:44:19;5.40;;;3.47;;
74851;SDS011;63400;50.650;6.832;2024-01-10T07:46:44;6.32;;;2.05;;
74851;SDS011;63400;50.650;6.832;2024-01-10T07:49:10;8.55;;;4.50;;
74851;SDS011;63400;50.650;6.832;2024-01-10T07:51:35;5.45;;;2.47;;
74851;SDS011;63400;50.650;6.832;2024-01-10T07:54:01;5.82;;;2.95;;
74851;SDS011;63400;50.650;6.832;2024-01-10T07:56:26;14.43;;;4.38;;
74851;SDS011;63400;50.650;6.832;2024-01-10T07:58:52;5.93;;;2.42;;
74851;SDS011;63400;50.650;6.832;2024-01-10T08:01:17;6.13;;;3.30;;
74851;SDS011;63400;50.650;6.832;2024-01-10T08:03:43;11.48;;;4.40;;
74851;SDS011;63400;50.650;6.832;2024-01-10T08:06:08;10.93;;;3.92;;
74851;SDS011;63400;50.650;6.832;2024-01-10T08:08:35;6.78;;;4.03;;
74851;SDS011;63400;50.650;6.832;2024-01-10T08:11:01;5.90;;;2.67;;
74851;SDS011;63400;50.650;6.832;2024-01-10T08:13:27;6.75;;;2.00;;
74851;SDS011;63400;50.650;6.832;2024-01-10T08:15:52;6.88;;;2.65;;
74851;SDS011;63400;50.650;6.832;2024-01-10T08:18:19;5.68;;;2.33;;
74851;SDS011;63400;50.650;6.832;2024-01-10T08:20:44;5.00;;;2.38;;
74851;SDS011;63400;50.650;6.832;2024-01-10T08:23:10;5.88;;;2.47;;
74851;SDS011;63400;50.650;6.832;2024-01-10T08:25:35;7.55;;;3.10;;
74851;SDS011;63400;50.650;6.832;2024-01-10T08:28:01;13.18;;;4.55;;
74851;SDS011;63400;50.650;6.832;2024-01-10T08:30:26;8.85;;;3.33;;
74851;SDS011;63400;50.650;6.832;2024-01-10T08:32:52;7.68;;;2.17;;
74851;SDS011;63400;50.650;6.832;2024-01-10T08:35:17;10.90;;;3.60;;
74851;SDS011;63400;50.650;6.832;2024-01-10T08:37:44;8.38;;;2.97;;
74851;SDS011;63400;50.650;6.832;2024-01-10T08:40:11;6.55;;;3.53;;
74851;SDS011;63400;50.650;6.832;2024-01-10T08:42:39;6.95;;;3.45;;
74851;SDS011;63400;50.650;6.832;2024-01-10T08:45:05;6.50;;;3.05;;
74851;SDS011;63400;50.650;6.832;2024-01-10T08:47:31;9.68;;;3.90;;
74851;SDS011;63400;50.650;6.832;2024-01-10T08:50:01;6.25;;;3.35;;
74851;SDS011;63400;50.650;6.832;2024-01-10T08:52:30;6.60;;;2.67;;
74851;SDS011;63400;50.650;6.832;2024-01-10T08:54:56;7.13;;;2.38;;
74851;SDS011;63400;50.650;6.832;2024-01-10T08:57:21;11.50;;;4.45;;
74851;SDS011;63400;50.650;6.832;2024-01-10T08:59:47;11.93;;;5.47;;
74851;SDS011;63400;50.650;6.832;2024-01-10T09:02:12;13.85;;;4.55;;
74851;SDS011;63400;50.650;6.832;2024-01-10T09:04:37;9.75;;;3.88;;
74851;SDS011;63400;50.650;6.832;2024-01-10T09:07:03;7.22;;;3.58;;
74851;SDS011;63400;50.650;6.832;2024-01-10T09:09:28;9.00;;;3.85;;
74851;SDS011;63400;50.650;6.832;2024-01-10T09:11:54;8.77;;;3.38;;
74851;SDS011;63400;50.650;6.832;2024-01-10T09:14:19;8.15;;;5.07;;
74851;SDS011;63400;50.650;6.832;2024-01-10T09:16:45;10.95;;;3.70;;
74851;SDS011;63400;50.650;6.832;2024-01-10T09:19:11;14.48;;;4.30;;
74851;SDS011;63400;50.650;6.832;2024-01-10T09:21:36;11.02;;;4.80;;
74851;SDS011;63400;50.650;6.832;2024-01-10T09:24:02;12.63;;;5.13;;
74851;SDS011;63400;50.650;6.832;2024-01-10T09:26:33;6.47;;;3.65;;
74851;SDS011;63400;50.650;6.832;2024-01-10T09:28:58;9.32;;;3.22;;
74851;SDS011;63400;50.650;6.832;2024-01-10T09:31:24;10.82;;;5.00;;
74851;SDS011;63400;50.650;6.832;2024-01-10T09:33:49;12.73;;;4.40;;
74851;SDS011;63400;50.650;6.832;2024-01-10T09:36:14;10.65;;;3.65;;
74851;SDS011;63400;50.650;6.832;2024-01-10T09:38:40;11.13;;;4.85;;
74851;SDS011;63400;50.650;6.832;2024-01-10T09:41:05;11.32;;;5.40;;
74851;SDS011;63400;50.650;6.832;2024-01-10T09:43:31;12.20;;;4.95;;
74851;SDS011;63400;50.650;6.832;2024-01-10T09:45:58;10.63;;;5.10;;
74851;SDS011;63400;50.650;6.832;2024-01-10T09:48:25;11.10;;;4.70;;
74851;SDS011;63400;50.650;6.832;2024-01-10T09:50:51;12.68;;;4.40;;
74851;SDS011;63400;50.650;6.832;2024-01-10T09:53:23;10.68;;;4.88;;
74851;SDS011;63400;50.650;6.832;2024-01-10T09:55:50;9.00;;;3.78;;
74851;SDS011;63400;50.650;6.832;2024-01-10T09:58:15;13.75;;;4.95;;
74851;SDS011;63400;50.650;6.832;2024-01-10T10:00:41;16.38;;;5.90;;
74851;SDS011;63400;50.650;6.832;2024-01-10T10:03:07;10.18;;;3.70;;
74851;SDS011;63400;50.650;6.832;2024-01-10T10:05:35;14.35;;;5.25;;
74851;SDS011;63400;50.650;6.832;2024-01-10T10:08:02;10.85;;;4.00;;
74851;SDS011;63400;50.650;6.832;2024-01-10T10:10:28;13.90;;;6.70;;
74851;SDS011;63400;50.650;6.832;2024-01-10T10:12:53;16.25;;;5.32;;
74851;SDS011;63400;50.650;6.832;2024-01-10T10:15:22;17.83;;;6.32;;
74851;SDS011;63400;50.650;6.832;2024-01-10T10:17:49;18.02;;;5.78;;
74851;SDS011;63400;50.650;6.832;2024-01-10T10:22:57;11.88;;;5.00;;
74851;SDS011;63400;50.650;6.832;2024-01-10T10:25:31;22.90;;;8.07;;
74851;SDS011;63400;50.650;6.832;2024-01-10T10:27:57;13.20;;;6.20;;
74851;SDS011;63400;50.650;6.832;2024-01-10T10:30:23;11.52;;;5.43;;
74851;SDS011;63400;50.650;6.832;2024-01-10T10:32:49;18.38;;;6.80;;
74851;SDS011;63400;50.650;6.832;2024-01-10T10:35:14;11.80;;;5.80;;
74851;SDS011;63400;50.650;6.832;2024-01-10T10:37:40;13.30;;;5.32;;
74851;SDS011;63400;50.650;6.832;2024-01-10T10:40:05;12.88;;;5.00;;
74851;SDS011;63400;50.650;6.832;2024-01-10T10:42:34;19.23;;;5.15;;
74851;SDS011;63400;50.650;6.832;2024-01-10T10:45:02;11.43;;;4.47;;
74851;SDS011;63400;50.650;6.832;2024-01-10T10:47:30;11.68;;;4.78;;
74851;SDS011;63400;50.650;6.832;2024-01-10T10:49:57;10.75;;;4.40;;
74851;SDS011;63400;50.650;6.832;2024-01-10T10:52:24;10.95;;;4.80;;
74851;SDS011;63400;50.650;6.832;2024-01-10T10:54:51;15.18;;;5.68;;
74851;SDS011;63400;50.650;6.832;2024-01-10T10:57:20;19.33;;;7.03;;
74851;SDS011;63400;50.650;6.832;2024-01-10T10:59:46;18.98;;;6.35;;
74851;SDS011;63400;50.650;6.832;2024-01-10T11:02:12;15.88;;;6.07;;
74851;SDS011;63400;50.650;6.832;2024-01-10T11:04:44;17.60;;;4.55;;
74851;SDS011;63400;50.650;6.832;2024-01-10T11:07:09;10.25;;;4.38;;
74851;SDS011;63400;50.650;6.832;2024-01-10T11:09:35;12.43;;;4.60;;
74851;SDS011;63400;50.650;6.832;2024-01-10T11:20:48;12.23;;;4.65;;
74851;SDS011;63400;50.650;6.832;2024-01-10T11:23:28;14.77;;;4.45;;
74851;SDS011;63400;50.650;6.832;2024-01-10T11:26:05;21.15;;;6.38;;
74851;SDS011;63400;50.650;6.832;2024-01-10T11:28:32;11.90;;;4.80;;
74851;SDS011;63400;50.650;6.832;2024-01-10T11:30:58;12.68;;;5.65;;
74851;SDS011;63400;50.650;6.832;2024-01-10T11:33:25;11.32;;;4.57;;
74851;SDS011;63400;50.650;6.832;2024-01-10T11:39:21;14.98;;;6.15;;
74851;SDS011;63400;50.650;6.832;2024-01-10T11:46:49;16.40;;;6.03;;
74851;SDS011;63400;50.650;6.832;2024-01-10T11:49:20;15.63;;;5.20;;
74851;SDS011;63400;50.650;6.832;2024-01-10T11:51:46;12.50;;;4.60;;
74851;SDS011;63400;50.650;6.832;2024-01-10T11:57:01;12.50;;;5.93;;
74851;SDS011;63400;50.650;6.832;2024-01-10T11:59:27;13.98;;;5.25;;
74851;SDS011;63400;50.650;6.832;2024-01-10T12:01:52;16.80;;;6.10;;
74851;SDS011;63400;50.650;6.832;2024-01-10T12:04:19;18.45;;;6.43;;
74851;SDS011;63400;50.650;6.832;2024-01-10T12:06:45;18.35;;;7.07;;
74851;SDS011;63400;50.650;6.832;2024-01-10T12:09:12;15.02;;;5.30;;
74851;SDS011;63400;50.650;6.832;2024-01-10T12:11:39;14.23;;;6.00;;
74851;SDS011;63400;50.650;6.832;2024-01-10T12:14:05;11.02;;;4.72;;
74851;SDS011;63400;50.650;6.832;2024-01-10T12:16:34;14.93;;;4.68;;
74851;SDS011;63400;50.650;6.832;2024-01-10T12:19:00;19.52;;;6.28;;
74851;SDS011;63400;50.650;6.832;2024-01-10T12:21:25;10.38;;;4.75;;
74851;SDS011;63400;50.650;6.832;2024-01-10T12:23:51;16.15;;;5.80;;
74851;SDS011;63400;50.650;6.832;2024-01-10T12:26:19;16.25;;;6.38;;
74851;SDS011;63400;50.650;6.832;2024-01-10T12:28:54;15.80;;;5.35;;
74851;SDS011;63400;50.650;6.832;2024-01-10T12:31:20;18.13;;;6.53;;
74851;SDS011;63400;50.650;6.832;2024-01-10T12:33:48;14.52;;;5.05;;
74851;SDS011;63400;50.650;6.832;2024-01-10T12:36:14;13.88;;;5.05;;
74851;SDS011;63400;50.650;6.832;2024-01-10T12:38:39;13.70;;;5.47;;
74851;SDS011;63400;50.650;6.832;2024-01-10T12:41:05;13.00;;;6.53;;
74851;SDS011;63400;50.650;6.832;2024-01-10T12:43:31;10.18;;;3.97;;
74851;SDS011;63400;50.650;6.832;2024-01-10T12:46:09;16.50;;;5.18;;
74851;SDS011;63400;50.650;6.832;2024-01-10T12:48:36;17.98;;;6.80;;
74851;SDS011;63400;50.650;6.832;2024-01-10T12:51:03;13.27;;;5.05;;
74851;SDS011;63400;50.650;6.832;2024-01-10T12:53:39;15.95;;;6.10;;
74851;SDS011;63400;50.650;6.832;2024-01-10T12:56:06;18.05;;;6.22;;
74851;SDS011;63400;50.650;6.832;2024-01-10T12:58:33;10.00;;;3.95;;
74851;SDS011;63400;50.650;6.832;2024-01-10T13:01:00;14.88;;;6.10;;
74851;SDS011;63400;50.650;6.832;2024-01-10T13:03:25;11.63;;;5.13;;
74851;SDS011;63400;50.650;6.832;2024-01-10T13:05:51;12.48;;;5.82;;
74851;SDS011;63400;50.650;6.832;2024-01-10T13:08:17;11.02;;;5.57;;
74851;SDS011;63400;50.650;6.832;2024-01-10T13:10:44;15.38;;;6.07;;
74851;SDS011;63400;50.650;6.832;2024-01-10T13:13:09;14.38;;;5.60;;
74851;SDS011;63400;50.650;6.832;2024-01-10T13:15:35;16.83;;;6.43;;
74851;SDS011;63400;50.650;6.832;2024-01-10T13:18:01;14.63;;;6.28;;
74851;SDS011;63400;50.650;6.832;2024-01-10T13:20:26;18.02;;;6.13;;
74851;SDS011;63400;50.650;6.832;2024-01-10T13:22:52;15.70;;;5.55;;
74851;SDS011;63400;50.650;6.832;2024-01-10T13:25:18;12.95;;;4.93;;
74851;SDS011;63400;50.650;6.832;2024-01-10T13:27:47;15.50;;;5.88;;
74851;SDS011;63400;50.650;6.832;2024-01-10T13:30:14;12.63;;;5.10;;
74851;SDS011;63400;50.650;6.832;2024-01-10T13:32:40;14.13;;;6.10;;
74851;SDS011;63400;50.650;6.832;2024-01-10T13:35:05;9.43;;;4.35;;
74851;SDS011;63400;50.650;6.832;2024-01-10T13:37:31;11.27;;;6.07;;
74851;SDS011;63400;50.650;6.832;2024-01-10T13:39:57;19.00;;;5.68;;
74851;SDS011;63400;50.650;6.832;2024-01-10T13:42:23;11.55;;;4.88;;
74851;SDS011;63400;50.650;6.832;2024-01-10T13:44:49;14.25;;;5.65;;
74851;SDS011;63400;50.650;6.832;2024-01-10T13:47:15;12.90;;;5.20;;
74851;SDS011;63400;50.650;6.832;2024-01-10T13:49:42;14.27;;;5.10;;
74851;SDS011;63400;50.650;6.832;2024-01-10T13:52:08;12.82;;;4.95;;
74851;SDS011;63400;50.650;6.832;2024-01-10T13:54:33;15.57;;;6.10;;
74851;SDS011;63400;50.650;6.832;2024-01-10T13:56:58;10.25;;;4.63;;
74851;SDS011;63400;50.650;6.832;2024-01-10T13:59:24;14.18;;;5.22;;
74851;SDS011;63400;50.650;6.832;2024-01-10T14:01:49;16.15;;;5.68;;
74851;SDS011;63400;50.650;6.832;2024-01-10T14:04:15;14.40;;;5.13;;
74851;SDS011;63400;50.650;6.832;2024-01-10T14:06:40;12.65;;;6.35;;
74851;SDS011;63400;50.650;6.832;2024-01-10T14:09:05;14.40;;;5.57;;
74851;SDS011;63400;50.650;6.832;2024-01-10T14:11:36;11.52;;;4.97;;
74851;SDS011;63400;50.650;6.832;2024-01-10T14:14:01;14.40;;;4.90;;
74851;SDS011;63400;50.650;6.832;2024-01-10T14:16:27;13.95;;;5.82;;
74851;SDS011;63400;50.650;6.832;2024-01-10T14:18:53;17.58;;;6.30;;
74851;SDS011;63400;50.650;6.832;2024-01-10T14:21:21;13.65;;;5.35;;
74851;SDS011;63400;50.650;6.832;2024-01-10T14:23:47;14.35;;;5.38;;
74851;SDS011;63400;50.650;6.832;2024-01-10T14:26:13;18.42;;;7.40;;
74851;SDS011;63400;50.650;6.832;2024-01-10T14:28:39;11.73;;;4.35;;
74851;SDS011;63400;50.650;6.832;2024-01-10T14:31:04;17.83;;;5.43;;
74851;SDS011;63400;50.650;6.832;2024-01-10T14:33:30;12.95;;;4.97;;
74851;SDS011;63400;50.650;6.832;2024-01-10T14:35:56;12.73;;;5.63;;
74851;SDS011;63400;50.650;6.832;2024-01-10T14:38:21;14.75;;;5.78;;
74851;SDS011;63400;50.650;6.832;2024-01-10T14:40:47;12.18;;;4.60;;
74851;SDS011;63400;50.650;6.832;2024-01-10T14:43:12;17.65;;;5.90;;
74851;SDS011;63400;50.650;6.832;2024-01-10T14:45:38;16.98;;;6.18;;
74851;SDS011;63400;50.650;6.832;2024-01-10T14:48:03;10.25;;;3.60;;
74851;SDS011;63400;50.650;6.832;2024-01-10T14:50:29;16.02;;;6.80;;
74851;SDS011;63400;50.650;6.832;2024-01-10T14:52:54;16.17;;;6.85;;
74851;SDS011;63400;50.650;6.832;2024-01-10T14:55:22;17.13;;;7.68;;
74851;SDS011;63400;50.650;6.832;2024-01-10T14:57:48;13.20;;;5.45;;
74851;SDS011;63400;50.650;6.832;2024-01-10T15:00:14;17.38;;;6.03;;
74851;SDS011;63400;50.650;6.832;2024-01-10T15:02:40;14.52;;;5.38;;
74851;SDS011;63400;50.650;6.832;2024-01-10T15:05:06;16.30;;;6.70;;